Wetterstation Vordersexau
Wetterdaten: Woche 09.04.12 - 15.04.12 (KW15)
Datum Zeit Temp. A. Feuchte A. Luftdruck Regen Wind Richtung Taupunkt Windchill Windben
09.04.2012 00:00 0,1 C 75 % 1013,6 hPa 0,0 l/m 0,0 km/h NO -3,8 C 0,1 C 0,0 km/h
09.04.2012 01:00 -0,5 C 77 % 1013,2 hPa 0,0 l/m 0,0 km/h O-NO -4,0 C -0,5 C 0,0 km/h
09.04.2012 02:00 -0,5 C 79 % 1012,6 hPa 0,0 l/m 0,0 km/h O-SO -3,7 C -0,5 C 0,0 km/h
09.04.2012 03:00 -0,4 C 80 % 1011,8 hPa 0,0 l/m 0,0 km/h O-SO -3,4 C -0,4 C 0,0 km/h
09.04.2012 04:00 -0,4 C 81 % 1011,1 hPa 0,0 l/m 13,0 km/h O-SO -3,3 C -6,2 C 7,2 km/h
09.04.2012 05:00 0,0 C 82 % 1010,7 hPa 0,0 l/m 0,0 km/h NO -2,7 C 0,0 C 0,0 km/h
09.04.2012 06:00 1,1 C 81 % 1010,1 hPa 0,0 l/m 0,0 km/h O-NO -1,8 C 1,1 C 0,0 km/h
09.04.2012 07:00 1,9 C 81 % 1010,1 hPa 0,0 l/m 0,0 km/h W-SW -1,0 C 1,9 C 0,0 km/h
09.04.2012 08:00 5,1 C 74 % 1010,2 hPa 0,0 l/m 20,7 km/h S 0,9 C -3,3 C 11,5 km/h
09.04.2012 09:00 4,1 C 83 % 1010,0 hPa 0,0 l/m 15,6 km/h S-SW 1,5 C -2,3 C 8,6 km/h
09.04.2012 10:00 4,9 C 83 % 1009,5 hPa 0,4 l/m 0,0 km/h S-SW 2,3 C 4,9 C 0,0 km/h
09.04.2012 11:00 6,8 C 81 % 1009,2 hPa 0,0 l/m 25,3 km/h S-SW 3,8 C -2,6 C 14,0 km/h
09.04.2012 12:00 9,7 C 73 % 1008,5 hPa 0,0 l/m 20,7 km/h W-SW 5,1 C 2,7 C 11,5 km/h
09.04.2012 13:00 8,1 C 76 % 1007,9 hPa 0,0 l/m 13,6 km/h SW 4,1 C 3,5 C 7,6 km/h
09.04.2012 14:00 8,3 C 78 % 1007,6 hPa 0,0 l/m 0,0 km/h W-SW 4,7 C 8,3 C 0,0 km/h
09.04.2012 15:00 9,6 C 77 % 1006,7 hPa 0,4 l/m 21,4 km/h SW 5,8 C 2,3 C 11,9 km/h
09.04.2012 16:00 10,8 C 76 % 1006,1 hPa 0,0 l/m 25,9 km/h SW 6,7 C 2,7 C 14,4 km/h
09.04.2012 17:00 10,9 C 74 % 1005,3 hPa 0,0 l/m 11,7 km/h W 6,5 C 7,7 C 6,5 km/h
09.04.2012 18:00 10,9 C 73 % 1004,9 hPa 0,0 l/m 22,0 km/h W-SW 6,3 C 3,9 C 12,2 km/h
09.04.2012 19:00 10,4 C 75 % 1004,5 hPa 0,0 l/m 3,9 km/h S-SW 6,2 C 10,4 C 2,2 km/h
09.04.2012 20:00 9,9 C 76 % 1004,1 hPa 0,0 l/m 1,9 km/h O-NO 5,9 C 9,9 C 1,1 km/h
09.04.2012 21:00 8,7 C 79 % 1003,7 hPa 0,0 l/m 0,0 km/h N-NO 5,3 C 8,7 C 0,0 km/h
09.04.2012 22:00 8,1 C 83 % 1003,1 hPa 0,0 l/m 0,0 km/h O-NO 5,4 C 8,1 C 0,0 km/h
09.04.2012 23:00 7,9 C 83 % 1002,3 hPa 0,0 l/m 0,0 km/h O-SO 5,2 C 7,9 C 0,0 km/h
10.04.2012 00:00 8,4 C 82 % 1001,7 hPa 0,0 l/m 0,0 km/h O-NO 5,5 C 8,4 C 0,0 km/h
10.04.2012 01:00 8,3 C 82 % 1001,1 hPa 0,0 l/m 0,0 km/h NO 5,4 C 8,3 C 0,0 km/h
10.04.2012 02:00 8,4 C 82 % 1000,5 hPa 0,0 l/m 0,0 km/h O-SO 5,5 C 8,4 C 0,0 km/h
10.04.2012 03:00 8,1 C 82 % 1000,0 hPa 0,0 l/m 5,8 km/h NO 5,2 C 8,1 C 3,2 km/h
10.04.2012 04:00 8,1 C 83 % 999,6 hPa 0,0 l/m 0,0 km/h N-NO 5,4 C 8,1 C 0,0 km/h
10.04.2012 05:00 8,1 C 83 % 999,4 hPa 0,0 l/m 0,0 km/h O-NO 5,4 C 8,1 C 0,0 km/h
10.04.2012 06:00 8,6 C 79 % 998,9 hPa 0,0 l/m 0,0 km/h NO 5,2 C 8,6 C 0,0 km/h
10.04.2012 07:00 8,7 C 80 % 998,7 hPa 0,0 l/m 0,6 km/h N-NO 5,4 C 8,7 C 0,4 km/h
10.04.2012 08:00 11,5 C 73 % 998,5 hPa 0,0 l/m 0,0 km/h N-NO 6,8 C 11,5 C 0,0 km/h
10.04.2012 09:00 13,1 C 70 % 998,1 hPa 0,0 l/m 0,0 km/h W 7,8 C 13,1 C 0,0 km/h
10.04.2012 10:00 20,5 C 46 % 998,0 hPa 0,0 l/m 2,6 km/h SW 8,5 C 20,5 C 1,4 km/h
10.04.2012 11:00 21,4 C 36 % 997,2 hPa 0,0 l/m 24,0 km/h W-NW 5,7 C 17,4 C 13,3 km/h
10.04.2012 12:00 22,4 C 35 % 996,7 hPa 0,0 l/m 19,4 km/h W 6,2 C 19,4 C 10,8 km/h
10.04.2012 13:00 21,9 C 33 % 996,1 hPa 0,0 l/m 7,1 km/h W-SW 4,9 C 21,7 C 4,0 km/h
10.04.2012 14:00 19,3 C 40 % 995,9 hPa 0,0 l/m 11,0 km/h W-SW 5,4 C 17,5 C 6,1 km/h
10.04.2012 15:00 20,3 C 40 % 996,1 hPa 0,0 l/m 24,6 km/h SW 6,3 C 15,8 C 13,7 km/h
10.04.2012 16:00 16,2 C 48 % 997,4 hPa 0,0 l/m 25,9 km/h W-SW 5,2 C 10,1 C 14,4 km/h
10.04.2012 17:00 15,3 C 56 % 997,1 hPa 0,0 l/m 14,9 km/h W-SW 6,6 C 11,6 C 8,3 km/h
10.04.2012 18:00 14,2 C 61 % 996,5 hPa 0,0 l/m 0,0 km/h W-NW 6,8 C 14,2 C 0,0 km/h
10.04.2012 19:00 12,5 C 68 % 996,6 hPa 0,0 l/m 13,0 km/h S-SW 6,8 C 9,0 C 7,2 km/h
10.04.2012 20:00 10,3 C 79 % 997,6 hPa 0,4 l/m 0,0 km/h O-SO 6,8 C 10,3 C 0,0 km/h
10.04.2012 21:00 9,9 C 84 % 996,2 hPa 1,8 l/m 18,8 km/h O-SO 7,3 C 3,6 C 10,4 km/h
10.04.2012 22:00 11,6 C 75 % 996,1 hPa 0,0 l/m 27,2 km/h W-SW 7,3 C 3,5 C 15,1 km/h
10.04.2012 23:00 10,6 C 77 % 995,9 hPa 0,0 l/m 0,0 km/h W-SW 6,7 C 10,6 C 0,0 km/h
11.04.2012 00:00 10,1 C 82 % 996,8 hPa 0,0 l/m 25,3 km/h SW 7,2 C 1,9 C 14,0 km/h
11.04.2012 01:00 9,5 C 82 % 996,9 hPa 0,0 l/m 33,0 km/h S 6,6 C -0,7 C 18,4 km/h
11.04.2012 02:00 8,5 C 84 % 996,8 hPa 0,4 l/m 10,4 km/h S-SW 6,0 C 5,7 C 5,8 km/h
11.04.2012 03:00 8,2 C 84 % 996,9 hPa 0,0 l/m 3,2 km/h SW 5,7 C 8,2 C 1,8 km/h
11.04.2012 04:00 7,8 C 84 % 997,6 hPa 0,7 l/m 29,8 km/h S-SW 5,3 C -2,4 C 16,6 km/h
11.04.2012 05:00 7,0 C 84 % 997,9 hPa 0,4 l/m 1,9 km/h S-SW 4,5 C 7,0 C 1,1 km/h
11.04.2012 06:00 7,2 C 85 % 998,3 hPa 0,0 l/m 2,6 km/h SW 4,9 C 7,2 C 1,4 km/h
11.04.2012 07:00 7,1 C 85 % 999,1 hPa 0,0 l/m 0,0 km/h W-NW 4,8 C 7,1 C 0,0 km/h
11.04.2012 08:00 7,2 C 85 % 999,5 hPa 0,0 l/m 0,0 km/h W-SW 4,9 C 7,2 C 0,0 km/h
11.04.2012 09:00 8,4 C 84 % 999,7 hPa 0,0 l/m 9,7 km/h S-SW 5,9 C 6,0 C 5,4 km/h
11.04.2012 10:00 8,8 C 83 % 1000,0 hPa 0,0 l/m 20,1 km/h W-SW 6,1 C 1,7 C 11,2 km/h
11.04.2012 11:00 10,3 C 78 % 1000,3 hPa 0,0 l/m 18,8 km/h SW 6,6 C 4,1 C 10,4 km/h
11.04.2012 12:00 10,8 C 73 % 1000,7 hPa 0,0 l/m 22,7 km/h W-SW 6,2 C 3,5 C 12,6 km/h
11.04.2012 13:00 10,9 C 71 % 1000,7 hPa 0,0 l/m 19,4 km/h W-SW 5,9 C 4,6 C 10,8 km/h
11.04.2012 14:00 13,2 C 61 % 1000,6 hPa 0,0 l/m 1,3 km/h W 5,8 C 13,2 C 0,7 km/h
11.04.2012 15:00 12,8 C 59 % 1000,4 hPa 0,0 l/m 13,0 km/h W-SW 5,0 C 9,3 C 7,2 km/h
11.04.2012 16:00 11,9 C 59 % 1000,5 hPa 0,0 l/m 24,0 km/h SW 4,1 C 4,7 C 13,3 km/h
11.04.2012 17:00 12,1 C 58 % 1000,6 hPa 0,0 l/m 17,5 km/h S-SW 4,1 C 6,8 C 9,7 km/h
11.04.2012 18:00 13,1 C 57 % 1000,3 hPa 0,0 l/m 3,9 km/h S-SO 4,8 C 13,1 C 2,2 km/h
11.04.2012 19:00 15,5 C 48 % 1000,3 hPa 0,0 l/m 0,0 km/h O-NO 4,5 C 15,5 C 0,0 km/h
11.04.2012 20:00 8,4 C 68 % 1000,8 hPa 0,0 l/m 0,0 km/h O 2,8 C 8,4 C 0,0 km/h
11.04.2012 21:00 6,7 C 75 % 1001,2 hPa 0,0 l/m 0,0 km/h O-SO 2,6 C 6,7 C 0,0 km/h
11.04.2012 22:00 5,3 C 79 % 1001,4 hPa 0,0 l/m 0,0 km/h O 2,0 C 5,3 C 0,0 km/h
11.04.2012 23:00 4,9 C 83 % 1001,3 hPa 0,0 l/m 0,0 km/h O-NO 2,3 C 4,9 C 0,0 km/h
12.04.2012 00:00 4,3 C 84 % 1001,6 hPa 0,0 l/m 0,0 km/h O-NO 1,8 C 4,3 C 0,0 km/h
12.04.2012 01:00 3,1 C 84 % 1001,6 hPa 0,0 l/m 0,0 km/h SO 0,7 C 3,1 C 0,0 km/h
12.04.2012 02:00 4,2 C 85 % 1001,9 hPa 0,0 l/m 5,8 km/h O-SO 1,9 C 4,2 C 3,2 km/h
12.04.2012 03:00 4,6 C 85 % 1001,9 hPa 0,0 l/m 0,0 km/h O 2,3 C 4,6 C 0,0 km/h
12.04.2012 04:00 3,6 C 85 % 1001,6 hPa 0,0 l/m 0,0 km/h O-SO 1,3 C 3,6 C 0,0 km/h
12.04.2012 05:00 4,4 C 85 % 1001,4 hPa 0,0 l/m 2,6 km/h O-SO 2,1 C 4,4 C 1,4 km/h
12.04.2012 06:00 4,6 C 86 % 1001,3 hPa 0,0 l/m 0,0 km/h O-NO 2,5 C 4,6 C 0,0 km/h
12.04.2012 07:00 5,1 C 85 % 1001,5 hPa 0,0 l/m 0,0 km/h S-SW 2,8 C 5,1 C 0,0 km/h
12.04.2012 08:00 6,4 C 85 % 1001,8 hPa 0,4 l/m 11,7 km/h S 4,1 C 2,5 C 6,5 km/h
12.04.2012 09:00 8,5 C 83 % 1001,7 hPa 0,0 l/m 0,6 km/h S-SW 5,8 C 8,5 C 0,4 km/h
12.04.2012 10:00 11,8 C 71 % 1001,5 hPa 0,0 l/m 8,4 km/h W-SW 6,7 C 10,5 C 4,7 km/h
12.04.2012 11:00 11,6 C 71 % 1001,4 hPa 0,0 l/m 15,6 km/h SW 6,5 C 6,8 C 8,6 km/h
12.04.2012 12:00 13,3 C 65 % 1001,1 hPa 0,0 l/m 20,1 km/h W-SW 6,9 C 7,5 C 11,2 km/h
12.04.2012 13:00 14,2 C 61 % 1000,7 hPa 0,0 l/m 21,4 km/h SW 6,8 C 8,4 C 11,9 km/h
12.04.2012 14:00 14,1 C 57 % 1000,8 hPa 0,0 l/m 27,9 km/h W-SW 5,7 C 6,8 C 15,5 km/h
12.04.2012 15:00 12,6 C 63 % 1000,8 hPa 0,0 l/m 21,4 km/h SW 5,7 C 6,3 C 11,9 km/h
12.04.2012 16:00 12,3 C 62 % 1001,0 hPa 0,0 l/m 20,1 km/h W-SW 5,2 C 6,2 C 11,2 km/h
12.04.2012 17:00 11,6 C 65 % 1001,0 hPa 0,0 l/m 22,7 km/h N-NO 5,2 C 4,6 C 12,6 km/h
12.04.2012 18:00 7,1 C 78 % 1001,6 hPa 1,8 l/m 0,0 km/h O-SO 3,5 C 7,1 C 0,0 km/h
12.04.2012 19:00 6,9 C 85 % 1002,2 hPa 2,5 l/m 16,8 km/h S-SO 4,6 C 0,6 C 9,4 km/h
12.04.2012 20:00 6,3 C 85 % 1002,5 hPa 1,1 l/m 0,0 km/h O-SO 4,0 C 6,3 C 0,0 km/h
12.04.2012 21:00 5,9 C 85 % 1002,7 hPa 0,0 l/m 0,0 km/h NO 3,6 C 5,9 C 0,0 km/h
12.04.2012 22:00 5,0 C 85 % 1002,9 hPa 0,0 l/m 0,0 km/h O-NO 2,7 C 5,0 C 0,0 km/h
12.04.2012 23:00 3,9 C 85 % 1003,1 hPa 0,0 l/m 0,0 km/h O-NO 1,6 C 3,9 C 0,0 km/h
13.04.2012 00:00 3,5 C 85 % 1003,1 hPa 0,0 l/m 0,0 km/h O-NO 1,2 C 3,5 C 0,0 km/h
13.04.2012 01:00 3,5 C 85 % 1003,5 hPa 0,0 l/m 0,0 km/h O-NO 1,2 C 3,5 C 0,0 km/h
13.04.2012 02:00 2,9 C 84 % 1003,3 hPa 0,0 l/m 0,0 km/h SO 0,5 C 2,9 C 0,0 km/h
13.04.2012 03:00 2,3 C 85 % 1003,1 hPa 0,0 l/m 0,0 km/h O-SO 0,0 C 2,3 C 0,0 km/h
13.04.2012 04:00 2,1 C 84 % 1003,0 hPa 0,0 l/m 0,0 km/h O-SO -0,3 C 2,1 C 0,0 km/h
13.04.2012 05:00 1,6 C 84 % 1002,9 hPa 0,0 l/m 1,3 km/h SO -0,8 C 1,6 C 0,7 km/h
13.04.2012 06:00 1,0 C 84 % 1002,8 hPa 0,0 l/m 4,5 km/h O-SO -1,4 C 1,0 C 2,5 km/h
13.04.2012 07:00 1,8 C 83 % 1003,0 hPa 0,0 l/m 5,2 km/h O-SO -0,8 C 1,8 C 2,9 km/h
13.04.2012 08:00 4,4 C 77 % 1003,5 hPa 0,0 l/m 0,0 km/h SO 0,7 C 4,4 C 0,0 km/h
13.04.2012 09:00 9,1 C 66 % 1003,2 hPa 0,0 l/m 2,6 km/h W 3,1 C 9,1 C 1,4 km/h
13.04.2012 10:00 15,1 C 69 % 1003,4 hPa 0,0 l/m 1,3 km/h N-NO 9,5 C 15,1 C 0,7 km/h
13.04.2012 11:00 16,8 C 58 % 1003,0 hPa 0,0 l/m 9,1 km/h NO 8,5 C 15,5 C 5,0 km/h
13.04.2012 12:00 18,7 C 49 % 1002,5 hPa 0,0 l/m 1,9 km/h N-NW 7,8 C 18,7 C 1,1 km/h
13.04.2012 13:00 14,5 C 52 % 1001,8 hPa 0,0 l/m 3,9 km/h N 4,8 C 14,5 C 2,2 km/h
13.04.2012 14:00 17,8 C 44 % 1001,6 hPa 0,0 l/m 1,3 km/h NO 5,4 C 17,8 C 0,7 km/h
13.04.2012 15:00 18,1 C 46 % 1001,1 hPa 0,0 l/m 7,1 km/h N 6,3 C 17,8 C 4,0 km/h
13.04.2012 16:00 16,1 C 45 % 1000,7 hPa 0,0 l/m 1,9 km/h N-NO 4,2 C 16,1 C 1,1 km/h
13.04.2012 17:00 15,1 C 45 % 1000,9 hPa 0,0 l/m 0,0 km/h S-SO 3,3 C 15,1 C 0,0 km/h
13.04.2012 18:00 12,2 C 61 % 1000,7 hPa 0,0 l/m 0,0 km/h SO 4,9 C 12,2 C 0,0 km/h
13.04.2012 19:00 11,2 C 66 % 1000,5 hPa 0,0 l/m 0,0 km/h SO 5,1 C 11,2 C 0,0 km/h
13.04.2012 20:00 9,9 C 70 % 1000,7 hPa 0,0 l/m 0,0 km/h NO 4,7 C 9,9 C 0,0 km/h
13.04.2012 21:00 8,8 C 75 % 1000,9 hPa 0,0 l/m 0,0 km/h SO 4,6 C 8,8 C 0,0 km/h
13.04.2012 22:00 8,3 C 77 % 1000,9 hPa 0,0 l/m 0,0 km/h O 4,5 C 8,3 C 0,0 km/h
13.04.2012 23:00 8,5 C 76 % 1000,8 hPa 0,0 l/m 0,0 km/h O-SO 4,5 C 8,5 C 0,0 km/h
14.04.2012 00:00 7,8 C 77 % 1000,6 hPa 0,0 l/m 0,0 km/h O 4,0 C 7,8 C 0,0 km/h
14.04.2012 01:00 7,3 C 79 % 1000,5 hPa 0,0 l/m 0,0 km/h S-SO 3,9 C 7,3 C 0,0 km/h
14.04.2012 02:00 6,1 C 80 % 1000,1 hPa 0,0 l/m 0,0 km/h SO 2,9 C 6,1 C 0,0 km/h
14.04.2012 03:00 4,6 C 82 % 999,8 hPa 0,0 l/m 0,0 km/h O-NO 1,8 C 4,6 C 0,0 km/h
14.04.2012 04:00 3,6 C 84 % 999,9 hPa 0,0 l/m 0,0 km/h O-NO 1,2 C 3,6 C 0,0 km/h
14.04.2012 05:00 3,5 C 85 % 999,6 hPa 0,0 l/m 0,0 km/h NO 1,2 C 3,5 C 0,0 km/h
14.04.2012 06:00 3,1 C 85 % 999,0 hPa 0,0 l/m 0,0 km/h NO 0,8 C 3,1 C 0,0 km/h
14.04.2012 07:00 3,6 C 85 % 999,1 hPa 0,0 l/m 0,0 km/h NO 1,3 C 3,6 C 0,0 km/h
14.04.2012 08:00 6,4 C 84 % 999,1 hPa 0,0 l/m 0,0 km/h W 3,9 C 6,4 C 0,0 km/h
14.04.2012 09:00 10,9 C 73 % 998,9 hPa 0,0 l/m 0,0 km/h W-SW 6,3 C 10,9 C 0,0 km/h
14.04.2012 10:00 12,0 C 67 % 998,8 hPa 0,0 l/m 8,4 km/h W 6,1 C 10,7 C 4,7 km/h
14.04.2012 11:00 15,8 C 60 % 998,4 hPa 0,0 l/m 7,1 km/h N-NO 8,1 C 15,4 C 4,0 km/h
14.04.2012 12:00 16,4 C 43 % 997,8 hPa 0,0 l/m 0,0 km/h NO 3,8 C 16,4 C 0,0 km/h
14.04.2012 13:00 16,7 C 41 % 997,5 hPa 0,0 l/m 0,0 km/h N-NO 3,4 C 16,7 C 0,0 km/h
14.04.2012 14:00 14,1 C 43 % 997,7 hPa 0,0 l/m 0,6 km/h N 1,7 C 14,1 C 0,4 km/h
14.04.2012 15:00 13,4 C 41 % 997,5 hPa 0,0 l/m 9,7 km/h N-NO 0,4 C 11,5 C 5,4 km/h
14.04.2012 16:00 13,6 C 47 % 997,4 hPa 0,0 l/m 0,0 km/h NO 2,5 C 13,6 C 0,0 km/h
14.04.2012 17:00 12,9 C 49 % 997,4 hPa 0,0 l/m 0,0 km/h N-NO 2,5 C 12,9 C 0,0 km/h
14.04.2012 18:00 11,1 C 60 % 998,0 hPa 0,0 l/m 0,0 km/h O-SO 3,6 C 11,1 C 0,0 km/h
14.04.2012 19:00 10,1 C 65 % 998,0 hPa 0,0 l/m 0,0 km/h N-NO 3,8 C 10,1 C 0,0 km/h
14.04.2012 20:00 9,2 C 67 % 998,4 hPa 0,0 l/m 0,0 km/h N-NO 3,4 C 9,2 C 0,0 km/h
14.04.2012 21:00 8,4 C 74 % 998,8 hPa 0,0 l/m 0,0 km/h N-NO 4,0 C 8,4 C 0,0 km/h
14.04.2012 22:00 8,4 C 75 % 999,0 hPa 0,0 l/m 0,0 km/h NO 4,2 C 8,4 C 0,0 km/h
14.04.2012 23:00 7,9 C 77 % 998,9 hPa 0,0 l/m 0,0 km/h N 4,1 C 7,9 C 0,0 km/h
15.04.2012 00:00 8,0 C 79 % 998,8 hPa 0,0 l/m 0,0 km/h O 4,6 C 8,0 C 0,0 km/h
15.04.2012 01:00 7,6 C 79 % 998,3 hPa 0,0 l/m 0,0 km/h S-SO 4,2 C 7,6 C 0,0 km/h
15.04.2012 02:00 7,3 C 79 % 998,0 hPa 0,0 l/m 0,0 km/h S-SO 3,9 C 7,3 C 0,0 km/h
15.04.2012 03:00 7,0 C 80 % 997,9 hPa 0,0 l/m 0,0 km/h N-NO 3,8 C 7,0 C 0,0 km/h
15.04.2012 04:00 6,9 C 80 % 997,9 hPa 0,0 l/m 0,0 km/h N 3,7 C 6,9 C 0,0 km/h
15.04.2012 05:00 8,3 C 71 % 998,0 hPa 0,0 l/m 0,0 km/h N 3,4 C 8,3 C 0,0 km/h
15.04.2012 06:00 8,6 C 66 % 998,2 hPa 0,0 l/m 0,0 km/h N 2,6 C 8,6 C 0,0 km/h
15.04.2012 07:00 8,4 C 66 % 998,9 hPa 0,0 l/m 9,7 km/h N-NW 2,4 C 6,0 C 5,4 km/h
15.04.2012 08:00 8,9 C 66 % 999,4 hPa 0,0 l/m 0,0 km/h N-NO 2,9 C 8,9 C 0,0 km/h
15.04.2012 09:00 10,0 C 64 % 999,7 hPa 0,0 l/m 9,7 km/h NO 3,5 C 7,8 C 5,4 km/h
15.04.2012 10:00 11,6 C 62 % 1000,2 hPa 0,0 l/m 3,2 km/h N-NW 4,6 C 11,6 C 1,8 km/h
15.04.2012 11:00 13,8 C 58 % 1000,4 hPa 0,0 l/m 1,9 km/h NO 5,7 C 13,8 C 1,1 km/h
15.04.2012 12:00 12,4 C 60 % 1000,8 hPa 0,0 l/m 0,0 km/h O 4,9 C 12,4 C 0,0 km/h
15.04.2012 13:00 12,4 C 64 % 1001,1 hPa 0,0 l/m 0,0 km/h N 5,8 C 12,4 C 0,0 km/h
15.04.2012 14:00 11,6 C 68 % 1001,7 hPa 0,0 l/m 2,6 km/h N-NO 5,9 C 11,6 C 1,4 km/h
15.04.2012 15:00 10,2 C 74 % 1002,1 hPa 0,0 l/m 0,0 km/h N-NO 5,8 C 10,2 C 0,0 km/h
15.04.2012 16:00 9,8 C 76 % 1002,3 hPa 0,0 l/m 0,0 km/h N 5,8 C 9,8 C 0,0 km/h
15.04.2012 17:00 9,5 C 79 % 1003,0 hPa 0,4 l/m 0,0 km/h N-NO 6,0 C 9,5 C 0,0 km/h
15.04.2012 18:00 8,9 C 81 % 1003,8 hPa 0,0 l/m 0,0 km/h N-NO 5,8 C 8,9 C 0,0 km/h
15.04.2012 19:00 8,1 C 83 % 1004,7 hPa 0,7 l/m 0,0 km/h O-SO 5,4 C 8,1 C 0,0 km/h
15.04.2012 20:00 7,5 C 84 % 1005,7 hPa 0,7 l/m 0,0 km/h O 5,0 C 7,5 C 0,0 km/h
15.04.2012 21:00 7,1 C 84 % 1006,6 hPa 0,4 l/m 0,0 km/h O-NO 4,6 C 7,1 C 0,0 km/h
15.04.2012 22:00 7,0 C 85 % 1007,4 hPa 0,7 l/m 0,0 km/h O-NO 4,7 C 7,0 C 0,0 km/h
15.04.2012 23:00 6,9 C 85 % 1007,7 hPa 0,4 l/m 0,0 km/h O-NO 4,6 C 6,9 C 0,0 km/h
Min-Datum _ 09.04.12 10.04.12 10.04.12 - 09.04.12 - 09.04.12 09.04.12 09.04.12
_ Min-Zeit 01:30 13:30 14:30 - 00:30 - 01:30 04:30 00:30
Minimum _ -0,5 C 33 % 995,9 hPa - 0,0 km/h - -4,0 C -6,2 C 0,0 km/h
Max-Datum _ 10.04.12 12.04.12 09.04.12 12.04.12 11.04.12 - 13.04.12 10.04.12 11.04.12
_ Max-Zeit 12:30 06:30 00:30 19:30 01:30 - 10:30 13:30 01:30
Maximum _ 22,4 C 86 % 1013,6 hPa 2,5 l/m 33,0 km/h
S
- 9,5 C 21,7 C 18,4 km/h
S
Durchschnitt _ 9,1 C 72 % 1001,4 hPa #13,2 l/m 5,6 km/h O-SO 4,1 C 7,6 C 3,1 km/h
www.sexauwetter.de